Time;durP1;ratioP1;P1;durP2;ratioP2;P2;SDS_P1;SDS_P2;PMS_P1;PMS_P2;Temp;Humidity;BMP_temperature;BMP_pressure;BME280_temperature;BME280_humidity;BME280_pressure;Samples;Min_cycle;Max_cycle;Signal;HPM_P1;HPM_P2
2022/10/29 00:00:18;;;;;;;37.28;21.80;;;;;;;;;;6176440;28;20083;-74
2022/10/29 00:03:19;;;;;;;36.37;20.43;;;;;;;;;;6158669;28;20627;-74
2022/10/29 00:06:19;;;;;;;35.30;21.73;;;;;;;;;;6158677;28;20121;-73
2022/10/29 00:09:20;;;;;;;31.40;19.00;;;;;;;;;;6175188;28;20076;-73
2022/10/29 00:12:20;;;;;;;34.42;19.23;;;;;;;;;;6175940;28;20534;-73
2022/10/29 00:15:20;;;;;;;30.58;18.85;;;;;;;;;;6171462;28;20057;-74
2022/10/29 00:18:20;;;;;;;32.85;21.00;;;;;;;;;;6174211;28;20278;-73
2022/10/29 00:21:21;;;;;;;33.47;20.00;;;;;;;;;;6177293;28;20129;-73
2022/10/29 00:24:21;;;;;;;35.47;20.17;;;;;;;;;;6188310;28;20023;-73
2022/10/29 00:27:21;;;;;;;37.40;20.97;;;;;;;;;;6169799;28;20027;-73
2022/10/29 00:30:22;;;;;;;34.72;18.45;;;;;;;;;;6166802;28;20250;-73
2022/10/29 00:33:22;;;;;;;30.85;18.92;;;;;;;;;;6174565;28;20027;-73
2022/10/29 00:36:23;;;;;;;36.22;21.10;;;;;;;;;;6170417;28;20301;-73
2022/10/29 00:39:24;;;;;;;36.90;22.23;;;;;;;;;;6170195;28;20023;-73
2022/10/29 00:42:24;;;;;;;35.90;20.42;;;;;;;;;;6175449;28;20041;-74
2022/10/29 00:45:24;;;;;;;37.70;20.35;;;;;;;;;;6158423;28;20265;-73
2022/10/29 00:48:26;;;;;;;36.80;20.27;;;;;;;;;;6170252;28;20685;-74
2022/10/29 00:51:26;;;;;;;;;;;;;;;;;;6158703;28;20477;-73
2022/10/29 00:54:27;;;;;;;36.58;21.88;;;;;;;;;;6172124;28;19906;-73
2022/10/29 00:57:30;;;;;;;33.50;18.98;;;;;;;;;;6176126;28;20130;-73
2022/10/29 01:00:30;;;;;;;31.75;19.63;;;;;;;;;;6172473;28;20116;-74
2022/10/29 01:03:30;;;;;;;30.20;16.53;;;;;;;;;;6166309;28;20057;-73
2022/10/29 01:06:31;;;;;;;34.97;19.33;;;;;;;;;;6162303;28;20283;-73
2022/10/29 01:09:31;;;;;;;33.80;19.43;;;;;;;;;;6165251;28;20284;-74
2022/10/29 01:12:32;;;;;;;28.30;14.30;;;;;;;;;;6151138;28;20403;-74
2022/10/29 01:15:38;;;;;;;39.95;20.83;;;;;;;;;;6150305;28;20063;-74
2022/10/29 01:18:58;;;;;;;39.13;21.08;;;;;;;;;;6150833;28;20018;-74
2022/10/29 01:22:03;;;;;;;31.65;18.25;;;;;;;;;;6139469;28;20215;-74
2022/10/29 01:25:06;;;;;;;35.28;20.98;;;;;;;;;;6138147;28;20030;-74
2022/10/29 01:28:18;;;;;;;38.05;21.27;;;;;;;;;;6160988;28;20142;-74
2022/10/29 01:31:18;;;;;;;;;;;;;;;;;;6128283;29;20055;-74
2022/10/29 01:34:24;;;;;;;38.40;19.63;;;;;;;;;;6138806;28;19912;-74
2022/10/29 01:37:27;;;;;;;38.38;21.88;;;;;;;;;;6150241;28;20475;-74
2022/10/29 01:40:33;;;;;;;36.70;20.80;;;;;;;;;;6150166;28;20077;-73
2022/10/29 01:43:36;;;;;;;46.38;21.23;;;;;;;;;;6151314;28;20046;-74
2022/10/29 01:46:39;;;;;;;36.80;20.23;;;;;;;;;;6160385;28;20126;-73
2022/10/29 01:49:41;;;;;;;35.47;18.88;;;;;;;;;;6136988;28;20388;-74
2022/10/29 01:52:41;;;;;;;;;;;;;;;;;;6155182;28;20133;-74
2022/10/29 01:55:41;;;;;;;37.25;18.65;;;;;;;;;;6160381;28;19910;-75
2022/10/29 01:58:45;;;;;;;28.90;17.13;;;;;;;;;;6150566;28;20031;-73
2022/10/29 02:01:48;;;;;;;31.83;18.38;;;;;;;;;;6143356;28;20027;-74
2022/10/29 02:04:51;;;;;;;30.02;18.27;;;;;;;;;;6150125;28;20066;-75
2022/10/29 02:07:55;;;;;;;33.38;19.48;;;;;;;;;;6177588;28;20346;-75
2022/10/29 02:11:00;;;;;;;34.17;20.90;;;;;;;;;;6164214;28;20435;-74
2022/10/29 02:14:09;;;;;;;35.88;21.63;;;;;;;;;;6150066;29;20020;-74
2022/10/29 02:17:09;;;;;;;127.70;23.95;;;;;;;;;;6146859;28;20020;-75
2022/10/29 02:20:10;;;;;;;32.13;18.67;;;;;;;;;;6144190;28;20031;-75
2022/10/29 02:23:11;;;;;;;31.53;17.43;;;;;;;;;;6141952;29;20559;-73
2022/10/29 02:26:11;;;;;;;38.88;16.83;;;;;;;;;;6146939;28;20767;-73
2022/10/29 02:29:11;;;;;;;30.80;16.90;;;;;;;;;;6130032;28;20036;-72
2022/10/29 02:32:12;;;;;;;31.23;17.83;;;;;;;;;;6128468;28;20455;-73
2022/10/29 02:35:12;;;;;;;32.63;19.63;;;;;;;;;;6128774;28;20059;-73
2022/10/29 02:38:12;;;;;;;33.37;16.70;;;;;;;;;;6141792;28;20043;-73
2022/10/29 02:41:12;;;;;;;33.72;17.98;;;;;;;;;;6133158;28;20032;-73
2022/10/29 02:44:12;;;;;;;26.38;15.75;;;;;;;;;;6135313;28;20031;-72
2022/10/29 02:47:13;;;;;;;28.10;16.83;;;;;;;;;;6149056;28;20048;-73
2022/10/29 02:50:13;;;;;;;28.30;17.47;;;;;;;;;;6153654;29;20020;-72
2022/10/29 02:53:13;;;;;;;34.22;18.05;;;;;;;;;;6152998;29;20388;-72
2022/10/29 02:56:14;;;;;;;31.27;16.85;;;;;;;;;;6165246;28;20027;-73
2022/10/29 02:59:14;;;;;;;32.37;19.23;;;;;;;;;;6153018;28;20482;-73
2022/10/29 03:02:14;;;;;;;38.35;18.40;;;;;;;;;;6146672;28;20061;-72
2022/10/29 03:05:14;;;;;;;34.22;16.15;;;;;;;;;;6143486;28;20274;-72
2022/10/29 03:08:15;;;;;;;26.50;17.53;;;;;;;;;;6155425;28;20487;-73
2022/10/29 03:11:15;;;;;;;32.33;16.80;;;;;;;;;;6161514;28;20016;-73
2022/10/29 03:14:15;;;;;;;31.48;16.88;;;;;;;;;;6154861;28;20023;-73
2022/10/29 03:17:16;;;;;;;32.75;17.05;;;;;;;;;;6159796;28;20479;-73
2022/10/29 03:20:16;;;;;;;27.80;16.10;;;;;;;;;;6159577;28;20049;-73
2022/10/29 03:23:16;;;;;;;31.10;16.50;;;;;;;;;;6153707;28;20616;-73
2022/10/29 03:26:16;;;;;;;26.60;16.03;;;;;;;;;;6160794;28;20031;-73
2022/10/29 03:29:16;;;;;;;29.23;16.60;;;;;;;;;;6153159;28;20023;-73
2022/10/29 03:32:17;;;;;;;28.65;17.85;;;;;;;;;;6154523;28;20274;-73
2022/10/29 03:35:17;;;;;;;28.57;15.70;;;;;;;;;;6156411;28;20254;-73
2022/10/29 03:38:17;;;;;;;31.80;16.50;;;;;;;;;;6154249;28;20251;-72
2022/10/29 03:41:17;;;;;;;30.58;18.27;;;;;;;;;;6154838;28;20113;-74
2022/10/29 03:44:17;;;;;;;34.22;18.23;;;;;;;;;;6161315;28;20030;-73
2022/10/29 03:47:17;;;;;;;27.38;17.45;;;;;;;;;;6163900;28;20051;-73
2022/10/29 03:50:18;;;;;;;30.33;18.05;;;;;;;;;;6157523;28;20255;-73
2022/10/29 03:53:18;;;;;;;28.77;16.40;;;;;;;;;;6156122;28;20337;-73
2022/10/29 03:56:18;;;;;;;34.53;17.50;;;;;;;;;;6156158;28;20263;-73
2022/10/29 03:59:18;;;;;;;30.67;16.73;;;;;;;;;;6161300;28;20146;-73
2022/10/29 04:02:18;;;;;;;30.33;17.07;;;;;;;;;;6167495;28;20015;-73
2022/10/29 04:05:18;;;;;;;29.23;15.93;;;;;;;;;;6170275;28;20035;-73
2022/10/29 04:08:19;;;;;;;27.83;15.13;;;;;;;;;;6164041;28;20482;-73
2022/10/29 04:11:19;;;;;;;32.00;15.35;;;;;;;;;;6168862;28;20058;-73
2022/10/29 04:14:19;;;;;;;28.65;15.88;;;;;;;;;;6170562;28;20027;-73
2022/10/29 04:17:19;;;;;;;35.50;17.55;;;;;;;;;;6175536;28;20210;-73
2022/10/29 04:20:20;;;;;;;34.22;18.60;;;;;;;;;;6175692;28;20297;-73
2022/10/29 04:23:20;;;;;;;32.97;18.13;;;;;;;;;;6173807;28;20022;-73
2022/10/29 04:26:20;;;;;;;37.07;18.30;;;;;;;;;;6159512;28;20102;-73
2022/10/29 04:29:20;;;;;;;34.30;19.17;;;;;;;;;;6171215;28;20464;-73
2022/10/29 04:32:21;;;;;;;35.95;16.80;;;;;;;;;;6182753;28;20281;-73
2022/10/29 04:35:21;;;;;;;28.00;17.48;;;;;;;;;;6181399;28;20015;-75
2022/10/29 04:38:21;;;;;;;34.92;17.92;;;;;;;;;;6175549;28;20494;-75
2022/10/29 04:41:21;;;;;;;31.30;18.73;;;;;;;;;;6165500;28;20035;-75
2022/10/29 04:44:21;;;;;;;35.45;21.23;;;;;;;;;;6155329;28;20538;-75
2022/10/29 04:47:22;;;;;;;30.52;17.52;;;;;;;;;;6162774;28;20530;-75
2022/10/29 04:50:22;;;;;;;37.47;18.07;;;;;;;;;;6155757;28;20085;-75
2022/10/29 04:53:22;;;;;;;33.67;15.90;;;;;;;;;;6160876;28;20027;-75
2022/10/29 04:56:22;;;;;;;36.10;17.10;;;;;;;;;;6157520;28;20035;-75
2022/10/29 04:59:22;;;;;;;28.88;15.35;;;;;;;;;;6171381;28;20080;-72
2022/10/29 05:02:23;;;;;;;32.92;17.75;;;;;;;;;;6172227;28;20069;-73
2022/10/29 05:05:23;;;;;;;33.13;17.10;;;;;;;;;;6165700;28;20066;-73
2022/10/29 05:08:23;;;;;;;30.02;17.30;;;;;;;;;;6174446;28;20250;-73
2022/10/29 05:11:23;;;;;;;29.13;16.00;;;;;;;;;;6174336;28;20022;-73
2022/10/29 05:14:23;;;;;;;34.50;18.70;;;;;;;;;;6159652;28;20022;-73
2022/10/29 05:17:24;;;;;;;31.77;16.65;;;;;;;;;;6165917;28;20069;-72
2022/10/29 05:20:25;;;;;;;32.22;16.70;;;;;;;;;;6163192;28;20073;-73
2022/10/29 05:23:25;;;;;;;29.80;16.38;;;;;;;;;;6156804;28;20395;-72
2022/10/29 05:26:25;;;;;;;31.27;16.88;;;;;;;;;;6174050;28;20050;-72
2022/10/29 05:29:25;;;;;;;32.17;17.33;;;;;;;;;;6144327;28;20062;-72
2022/10/29 05:32:28;;;;;;;34.45;17.88;;;;;;;;;;6173579;28;20023;-72
2022/10/29 05:35:28;;;;;;;34.38;18.35;;;;;;;;;;6161789;28;20027;-72
2022/10/29 05:38:29;;;;;;;29.63;15.98;;;;;;;;;;6163549;28;20028;-72
2022/10/29 05:41:29;;;;;;;36.22;18.88;;;;;;;;;;6174595;28;20031;-73
2022/10/29 05:44:29;;;;;;;33.25;16.08;;;;;;;;;;6173782;28;20019;-73
2022/10/29 05:47:29;;;;;;;27.00;16.33;;;;;;;;;;6174065;28;20018;-74
2022/10/29 05:50:30;;;;;;;30.98;15.15;;;;;;;;;;6159755;28;20007;-74
2022/10/29 05:53:30;;;;;;;38.83;16.63;;;;;;;;;;6172286;28;20074;-73
2022/10/29 05:56:31;;;;;;;38.15;17.75;;;;;;;;;;6163139;28;20018;-73
2022/10/29 05:59:31;;;;;;;34.80;18.40;;;;;;;;;;6156162;28;20098;-73
2022/10/29 06:02:31;;;;;;;24.70;15.77;;;;;;;;;;6153608;28;20023;-73
2022/10/29 06:05:32;;;;;;;34.25;17.88;;;;;;;;;;6149085;28;20038;-73
2022/10/29 06:08:32;;;;;;;30.57;18.33;;;;;;;;;;6165910;28;20014;-73
2022/10/29 06:11:32;;;;;;;41.43;21.23;;;;;;;;;;6164805;28;20019;-73
2022/10/29 06:14:32;;;;;;;57.05;28.33;;;;;;;;;;6165893;28;20352;-74
2022/10/29 06:17:32;;;;;;;41.10;24.88;;;;;;;;;;6170057;28;20027;-73
2022/10/29 06:20:33;;;;;;;53.07;29.30;;;;;;;;;;6166979;28;20459;-73
2022/10/29 06:23:33;;;;;;;48.78;28.33;;;;;;;;;;6157273;28;20023;-73
2022/10/29 06:26:33;;;;;;;42.83;25.10;;;;;;;;;;6167391;28;20153;-73
2022/10/29 06:29:33;;;;;;;46.33;26.80;;;;;;;;;;6167817;28;20030;-73
2022/10/29 06:32:33;;;;;;;40.03;23.05;;;;;;;;;;6170223;28;20058;-73
2022/10/29 06:35:34;;;;;;;38.28;22.27;;;;;;;;;;6157983;28;20029;-73
2022/10/29 06:38:34;;;;;;;38.25;21.75;;;;;;;;;;6162503;28;20654;-73
2022/10/29 06:41:34;;;;;;;37.63;22.37;;;;;;;;;;6168270;28;21086;-73
2022/10/29 06:44:34;;;;;;;38.33;20.33;;;;;;;;;;6161999;28;20019;-73
2022/10/29 06:47:38;;;;;;;34.33;20.23;;;;;;;;;;6151677;28;20030;-73
2022/10/29 06:50:39;;;;;;;29.60;19.48;;;;;;;;;;6152561;28;20050;-73
2022/10/29 06:53:39;;;;;;;27.07;17.93;;;;;;;;;;6165799;28;20053;-73
2022/10/29 06:56:39;;;;;;;27.65;18.33;;;;;;;;;;6164322;28;20030;-73
2022/10/29 06:59:39;;;;;;;27.37;18.90;;;;;;;;;;6155525;28;20081;-73
2022/10/29 07:02:39;;;;;;;45.70;28.50;;;;;;;;;;6165189;28;20030;-73
2022/10/29 07:05:40;;;;;;;38.47;27.55;;;;;;;;;;6169130;28;20533;-74
2022/10/29 07:08:40;;;;;;;38.73;25.80;;;;;;;;;;6165699;28;20023;-74
2022/10/29 07:11:40;;;;;;;37.90;24.48;;;;;;;;;;6155379;28;20519;-74
2022/10/29 07:14:40;;;;;;;38.17;23.23;;;;;;;;;;6148833;28;20015;-74
2022/10/29 07:17:41;;;;;;;39.90;24.45;;;;;;;;;;6154918;28;20023;-74
2022/10/29 07:20:42;;;;;;;36.07;23.00;;;;;;;;;;6159031;28;20492;-74
2022/10/29 07:23:42;;;;;;;37.10;21.88;;;;;;;;;;6155647;28;20022;-74
2022/10/29 07:26:42;;;;;;;31.83;17.48;;;;;;;;;;6168644;28;20051;-74
2022/10/29 07:29:43;;;;;;;30.63;17.63;;;;;;;;;;6157735;28;20039;-74
2022/10/29 07:32:43;;;;;;;29.63;17.33;;;;;;;;;;6156174;28;20457;-74
2022/10/29 07:35:43;;;;;;;31.07;17.63;;;;;;;;;;6178302;28;20042;-74
2022/10/29 07:38:44;;;;;;;21.30;12.70;;;;;;;;;;6156377;28;20081;-75
2022/10/29 07:41:44;;;;;;;30.13;16.33;;;;;;;;;;6161214;28;20027;-75
2022/10/29 07:44:44;;;;;;;25.30;15.70;;;;;;;;;;6156769;28;20025;-74
2022/10/29 07:47:44;;;;;;;24.90;15.48;;;;;;;;;;6176756;28;20026;-73
2022/10/29 07:50:45;;;;;;;24.33;14.40;;;;;;;;;;6174839;28;20475;-73
2022/10/29 07:53:45;;;;;;;19.63;11.97;;;;;;;;;;6170004;28;20065;-72
2022/10/29 07:56:45;;;;;;;20.87;12.70;;;;;;;;;;6168739;28;20018;-72
2022/10/29 07:59:45;;;;;;;19.70;13.40;;;;;;;;;;6173208;28;20022;-72
2022/10/29 08:02:52;;;;;;;24.30;13.00;;;;;;;;;;6173239;28;20023;-73
2022/10/29 08:05:55;;;;;;;19.00;10.48;;;;;;;;;;6169149;28;20039;-73
2022/10/29 08:08:56;;;;;;;13.85;8.20;;;;;;;;;;6169050;28;20215;-73
2022/10/29 08:11:56;;;;;;;16.20;9.27;;;;;;;;;;6169221;28;20493;-73
2022/10/29 08:14:56;;;;;;;16.20;9.65;;;;;;;;;;6175092;28;20297;-75
2022/10/29 08:17:57;;;;;;;17.73;8.77;;;;;;;;;;6175907;28;20431;-73
2022/10/29 08:20:57;;;;;;;13.57;8.30;;;;;;;;;;6173039;28;20530;-73
2022/10/29 08:23:57;;;;;;;14.18;9.05;;;;;;;;;;6158275;28;20026;-74
2022/10/29 08:26:57;;;;;;;17.00;8.97;;;;;;;;;;6174644;28;20018;-74
2022/10/29 08:29:58;;;;;;;12.70;7.97;;;;;;;;;;6173919;28;20025;-73
2022/10/29 08:32:58;;;;;;;13.50;7.77;;;;;;;;;;6177187;28;20487;-73
2022/10/29 08:35:58;;;;;;;15.53;7.73;;;;;;;;;;6175924;28;20423;-74
2022/10/29 08:38:58;;;;;;;15.75;9.48;;;;;;;;;;6174944;28;20478;-74
2022/10/29 08:41:59;;;;;;;15.57;7.93;;;;;;;;;;6175511;28;20023;-74
2022/10/29 08:45:20;;;;;;;13.30;7.50;;;;;;;;;;6175048;28;20108;-74
2022/10/29 08:48:29;;;;;;;11.77;7.22;;;;;;;;;;6175752;28;20027;-74
2022/10/29 08:51:30;;;;;;;12.57;7.22;;;;;;;;;;6174806;28;20073;-74
2022/10/29 08:54:33;;;;;;;12.48;8.25;;;;;;;;;;6153846;28;20015;-75
2022/10/29 08:57:36;;;;;;;12.43;7.28;;;;;;;;;;6174679;28;20101;-75
2022/10/29 09:00:40;;;;;;;13.65;8.68;;;;;;;;;;6175670;28;20497;-75
2022/10/29 09:03:41;;;;;;;16.02;8.02;;;;;;;;;;6175776;28;20014;-75
2022/10/29 09:06:41;;;;;;;14.17;8.90;;;;;;;;;;6174786;28;20066;-75
2022/10/29 09:09:48;;;;;;;15.45;9.30;;;;;;;;;;6157936;28;20018;-75
2022/10/29 09:13:13;;;;;;;14.45;8.77;;;;;;;;;;6162019;28;20487;-75
2022/10/29 09:16:29;;;;;;;13.02;8.20;;;;;;;;;;6156863;28;20022;-75
2022/10/29 09:19:35;;;;;;;13.55;7.90;;;;;;;;;;6156642;28;20033;-75
2022/10/29 09:22:46;;;;;;;13.48;8.82;;;;;;;;;;6174878;28;20050;-75
2022/10/29 09:25:50;;;;;;;13.03;7.27;;;;;;;;;;6198935;28;20018;-74
2022/10/29 09:28:50;;;;;;;19.65;8.70;;;;;;;;;;6174476;28;20026;-75
2022/10/29 09:31:58;;;;;;;12.77;8.85;;;;;;;;;;6173526;28;20091;-75
2022/10/29 09:35:15;;;;;;;13.77;7.85;;;;;;;;;;6165380;28;20102;-74
2022/10/29 09:38:15;;;;;;;16.63;9.30;;;;;;;;;;6172492;28;20030;-75
2022/10/29 09:41:15;;;;;;;14.85;9.00;;;;;;;;;;6165476;28;20019;-75
2022/10/29 09:44:15;;;;;;;17.27;8.57;;;;;;;;;;6167145;28;20070;-74
2022/10/29 09:47:34;;;;;;;13.35;7.63;;;;;;;;;;6151089;28;20077;-74
2022/10/29 09:50:48;;;;;;;14.48;7.47;;;;;;;;;;6171038;28;20046;-74
2022/10/29 09:53:49;;;;;;;14.43;8.80;;;;;;;;;;6171228;28;20106;-74
2022/10/29 09:56:50;;;;;;;15.23;9.73;;;;;;;;;;6172994;28;20022;-74
2022/10/29 09:59:52;;;;;;;17.93;8.43;;;;;;;;;;6157537;28;20023;-74
2022/10/29 10:02:56;;;;;;;13.02;8.02;;;;;;;;;;6173817;28;20025;-75
2022/10/29 10:05:57;;;;;;;15.82;7.60;;;;;;;;;;6172887;28;20499;-75
2022/10/29 10:08:57;;;;;;;;;;;;;;;;;;6173631;28;20018;-75
2022/10/29 10:11:58;;;;;;;16.83;8.65;;;;;;;;;;6165099;28;20884;-75
2022/10/29 10:15:03;;;;;;;14.10;8.07;;;;;;;;;;6165324;28;20046;-75
2022/10/29 10:18:04;;;;;;;11.82;6.75;;;;;;;;;;6164720;28;20082;-75
2022/10/29 10:21:11;;;;;;;17.58;8.80;;;;;;;;;;6161595;28;20074;-75
2022/10/29 10:24:27;;;;;;;13.82;7.50;;;;;;;;;;6173067;28;20379;-75
2022/10/29 10:27:30;;;;;;;24.10;11.80;;;;;;;;;;6165202;28;20018;-75
2022/10/29 10:30:30;;;;;;;16.52;9.50;;;;;;;;;;6165438;28;20482;-74
2022/10/29 10:33:32;;;;;;;15.67;8.40;;;;;;;;;;6172019;28;20058;-75
2022/10/29 10:36:32;;;;;;;;;;;;;;;;;;6156178;28;20145;-75
2022/10/29 10:39:36;;;;;;;15.55;8.10;;;;;;;;;;6172247;28;19918;-74
2022/10/29 10:42:41;;;;;;;14.90;7.65;;;;;;;;;;6161276;28;20016;-75
2022/10/29 10:45:41;;;;;;;18.30;8.75;;;;;;;;;;6166003;28;20045;-75
2022/10/29 10:48:42;;;;;;;24.37;11.73;;;;;;;;;;6172635;28;20015;-75
2022/10/29 10:51:44;;;;;;;22.00;9.83;;;;;;;;;;6173300;28;20022;-74
2022/10/29 10:54:46;;;;;;;16.02;8.00;;;;;;;;;;6170677;28;20031;-75
2022/10/29 10:57:48;;;;;;;13.32;7.30;;;;;;;;;;6172424;28;20019;-74
2022/10/29 11:00:54;;;;;;;16.60;8.40;;;;;;;;;;6173502;28;20022;-74
2022/10/29 11:04:01;;;;;;;15.40;9.52;;;;;;;;;;6172116;28;20027;-75
2022/10/29 11:07:04;;;;;;;15.85;8.60;;;;;;;;;;6172933;28;20112;-75
2022/10/29 11:10:05;;;;;;;14.40;7.85;;;;;;;;;;6159147;28;20023;-75
2022/10/29 11:13:09;;;;;;;13.68;6.75;;;;;;;;;;6159181;28;20065;-74
2022/10/29 11:16:17;;;;;;;13.10;6.28;;;;;;;;;;6177499;28;20041;-74
2022/10/29 11:19:21;;;;;;;15.85;7.72;;;;;;;;;;6176256;28;20387;-74
2022/10/29 11:22:25;;;;;;;17.50;8.88;;;;;;;;;;6176650;28;20077;-74
2022/10/29 11:25:30;;;;;;;24.70;9.85;;;;;;;;;;6160002;28;20015;-74
2022/10/29 11:28:50;;;;;;;13.40;7.78;;;;;;;;;;6159688;28;20011;-74
2022/10/29 11:31:57;;;;;;;10.80;6.03;;;;;;;;;;6157692;28;20061;-75
2022/10/29 11:35:04;;;;;;;16.70;8.65;;;;;;;;;;6177031;28;20332;-74
2022/10/29 11:38:14;;;;;;;13.18;7.60;;;;;;;;;;6187974;28;20022;-74
2022/10/29 11:41:23;;;;;;;11.98;6.32;;;;;;;;;;6176570;28;20081;-74
2022/10/29 11:44:24;;;;;;;16.73;9.13;;;;;;;;;;6161030;28;20070;-74
2022/10/29 11:47:33;;;;;;;16.50;7.45;;;;;;;;;;6176480;28;20030;-74
2022/10/29 11:50:33;;;;;;;15.23;7.75;;;;;;;;;;6176845;28;20522;-74
2022/10/29 11:53:46;;;;;;;19.02;10.70;;;;;;;;;;6174937;28;20487;-74
2022/10/29 11:56:53;;;;;;;16.20;8.43;;;;;;;;;;6168252;28;20117;-75
2022/10/29 12:00:02;;;;;;;16.85;7.82;;;;;;;;;;6175706;28;20066;-75
2022/10/29 12:03:08;;;;;;;18.73;8.90;;;;;;;;;;6175806;28;20031;-75
2022/10/29 12:06:14;;;;;;;13.75;6.90;;;;;;;;;;6175365;28;20062;-75
2022/10/29 12:09:37;;;;;;;15.77;8.15;;;;;;;;;;6158276;28;20015;-75
2022/10/29 12:12:38;;;;;;;16.35;8.40;;;;;;;;;;6158652;28;20022;-75
2022/10/29 12:15:50;;;;;;;14.10;7.47;;;;;;;;;;6176988;28;20555;-75
2022/10/29 12:19:02;;;;;;;14.50;7.38;;;;;;;;;;6168650;28;20023;-75
2022/10/29 12:22:02;;;;;;;;;;;;;;;;;;6175917;28;20030;-75
2022/10/29 12:25:06;;;;;;;12.75;8.80;;;;;;;;;;6174706;28;19909;-75
2022/10/29 12:28:25;;;;;;;13.95;8.73;;;;;;;;;;6158314;28;20473;-74
2022/10/29 12:31:33;;;;;;;13.52;7.55;;;;;;;;;;6158330;28;20023;-75
2022/10/29 12:34:56;;;;;;;14.52;6.80;;;;;;;;;;6175750;28;20061;-75
2022/10/29 12:38:12;;;;;;;16.40;8.43;;;;;;;;;;6145682;28;20034;-75
2022/10/29 12:41:32;;;;;;;17.92;7.05;;;;;;;;;;6175663;28;20026;-75
2022/10/29 12:44:33;;;;;;;18.05;8.85;;;;;;;;;;6175235;28;20042;-75
2022/10/29 12:47:35;;;;;;;13.13;7.85;;;;;;;;;;6176076;28;20356;-75
2022/10/29 12:50:45;;;;;;;13.90;8.10;;;;;;;;;;6174114;28;20459;-75
2022/10/29 12:53:54;;;;;;;13.88;7.70;;;;;;;;;;6173150;28;20082;-74
2022/10/29 12:56:56;;;;;;;19.15;8.43;;;;;;;;;;6158099;28;20570;-75
2022/10/29 12:59:57;;;;;;;17.00;8.63;;;;;;;;;;6174752;28;20467;-74
2022/10/29 13:02:58;;;;;;;15.30;8.25;;;;;;;;;;6175746;28;20022;-73
2022/10/29 13:06:16;;;;;;;12.47;6.10;;;;;;;;;;6174016;28;20086;-73
2022/10/29 13:09:21;;;;;;;14.98;6.55;;;;;;;;;;6155962;28;20015;-75
2022/10/29 13:12:40;;;;;;;12.95;5.93;;;;;;;;;;6174296;28;20382;-75
2022/10/29 13:15:42;;;;;;;12.98;6.10;;;;;;;;;;6166684;28;20051;-74
2022/10/29 13:18:50;;;;;;;10.80;6.20;;;;;;;;;;6157110;28;20121;-73
2022/10/29 13:21:54;;;;;;;14.18;7.00;;;;;;;;;;6174306;28;20023;-74
2022/10/29 13:25:13;;;;;;;12.75;5.95;;;;;;;;;;6156625;28;20015;-73
2022/10/29 13:28:13;;;;;;;12.18;6.43;;;;;;;;;;6176889;28;20019;-74
2022/10/29 13:31:16;;;;;;;16.20;6.55;;;;;;;;;;6174574;28;20038;-73
2022/10/29 13:34:37;;;;;;;13.65;6.15;;;;;;;;;;6178240;28;20684;-73
2022/10/29 13:38:02;;;;;;;12.48;6.05;;;;;;;;;;6174131;28;20506;-72
2022/10/29 13:41:02;;;;;;;12.32;5.85;;;;;;;;;;6173685;28;20038;-73
2022/10/29 13:44:04;;;;;;;11.60;6.17;;;;;;;;;;6171467;28;20042;-73
2022/10/29 13:47:13;;;;;;;14.50;6.38;;;;;;;;;;6173474;28;20449;-73
2022/10/29 13:50:15;;;;;;;11.70;6.00;;;;;;;;;;6171122;28;20077;-72
2022/10/29 13:53:16;;;;;;;9.90;5.72;;;;;;;;;;6173937;28;20483;-74
2022/10/29 13:56:21;;;;;;;11.10;5.63;;;;;;;;;;6169090;28;20130;-74
2022/10/29 13:59:26;;;;;;;12.25;6.82;;;;;;;;;;6171342;28;20449;-74
2022/10/29 14:02:38;;;;;;;16.33;6.78;;;;;;;;;;6155614;28;20027;-74
2022/10/29 14:05:41;;;;;;;16.48;7.28;;;;;;;;;;6155972;28;20042;-74
2022/10/29 14:08:52;;;;;;;20.23;8.57;;;;;;;;;;6170842;28;20041;-74
2022/10/29 14:11:56;;;;;;;14.52;8.20;;;;;;;;;;6173465;28;20018;-74
2022/10/29 14:15:01;;;;;;;14.40;8.25;;;;;;;;;;6171004;28;20386;-73
2022/10/29 14:18:17;;;;;;;16.42;7.65;;;;;;;;;;6173569;28;20395;-74
2022/10/29 14:21:24;;;;;;;18.90;9.32;;;;;;;;;;6168902;28;20490;-74
2022/10/29 14:24:25;;;;;;;13.55;7.55;;;;;;;;;;6156312;28;20042;-75
2022/10/29 14:27:25;;;;;;;14.75;7.18;;;;;;;;;;6155461;28;20015;-74
2022/10/29 14:30:25;;;;;;;12.83;7.07;;;;;;;;;;6171504;28;20011;-75
2022/10/29 14:33:27;;;;;;;18.08;9.18;;;;;;;;;;6171224;28;20026;-74
2022/10/29 14:36:33;;;;;;;14.85;8.23;;;;;;;;;;6185275;28;20087;-74
2022/10/29 14:39:42;;;;;;;16.52;7.55;;;;;;;;;;6173574;28;20435;-74
2022/10/29 14:42:44;;;;;;;15.48;8.55;;;;;;;;;;6157943;28;20631;-74
2022/10/29 14:45:45;;;;;;;20.15;8.02;;;;;;;;;;6170763;28;20467;-74
2022/10/29 14:48:52;;;;;;;18.53;8.93;;;;;;;;;;6159369;28;20026;-74
2022/10/29 14:51:57;;;;;;;13.00;7.88;;;;;;;;;;6147700;29;20358;-74
2022/10/29 14:55:00;;;;;;;16.90;8.57;;;;;;;;;;6171410;28;20064;-75
2022/10/29 14:58:00;;;;;;;20.58;9.55;;;;;;;;;;6158114;28;20103;-75
2022/10/29 15:01:11;;;;;;;20.60;11.10;;;;;;;;;;6170226;28;20047;-74
2022/10/29 15:04:25;;;;;;;21.40;10.52;;;;;;;;;;6169749;28;20047;-74
2022/10/29 15:07:30;;;;;;;16.95;9.20;;;;;;;;;;6163342;28;20043;-74
2022/10/29 15:10:31;;;;;;;13.50;8.20;;;;;;;;;;6166752;28;20002;-74
2022/10/29 15:13:33;;;;;;;17.53;9.90;;;;;;;;;;6163514;28;20023;-74
2022/10/29 15:16:34;;;;;;;19.13;10.98;;;;;;;;;;6156918;28;20420;-75
2022/10/29 15:19:35;;;;;;;20.00;11.67;;;;;;;;;;6166428;28;20109;-74
2022/10/29 15:22:39;;;;;;;24.60;15.13;;;;;;;;;;6166753;28;20026;-74
2022/10/29 15:25:39;;;;;;;25.05;14.02;;;;;;;;;;6150982;28;20379;-75
2022/10/29 15:28:41;;;;;;;21.77;12.93;;;;;;;;;;6160484;28;20027;-74
2022/10/29 15:31:48;;;;;;;26.08;15.25;;;;;;;;;;6164311;28;20007;-74
2022/10/29 15:34:53;;;;;;;32.15;19.90;;;;;;;;;;6169654;28;20764;-75
2022/10/29 15:37:53;;;;;;;30.60;17.13;;;;;;;;;;6145856;28;20023;-75
2022/10/29 15:41:13;;;;;;;34.70;18.63;;;;;;;;;;6159874;28;20031;-75
2022/10/29 15:44:29;;;;;;;28.88;17.73;;;;;;;;;;6152722;28;20035;-75
2022/10/29 15:47:29;;;;;;;28.08;17.48;;;;;;;;;;6169786;28;20047;-75
2022/10/29 15:50:36;;;;;;;28.90;17.23;;;;;;;;;;6168208;28;20022;-75
2022/10/29 15:53:37;;;;;;;32.33;20.52;;;;;;;;;;6162448;28;20022;-75
2022/10/29 15:56:37;;;;;;;37.47;23.90;;;;;;;;;;6167279;28;20027;-75
2022/10/29 15:59:37;;;;;;;47.47;28.47;;;;;;;;;;6161011;28;20434;-75
2022/10/29 16:02:38;;;;;;;47.97;31.87;;;;;;;;;;6157807;28;20041;-75
2022/10/29 16:05:38;;;;;;;35.20;22.97;;;;;;;;;;6168590;28;20122;-75
2022/10/29 16:08:39;;;;;;;36.27;22.13;;;;;;;;;;6172455;28;20031;-75
2022/10/29 16:11:40;;;;;;;33.17;19.83;;;;;;;;;;6147171;28;20022;-75
2022/10/29 16:14:40;;;;;;;33.95;22.08;;;;;;;;;;6164243;28;20019;-75
2022/10/29 16:17:40;;;;;;;34.00;21.37;;;;;;;;;;6165206;28;20050;-75
2022/10/29 16:20:40;;;;;;;31.63;18.63;;;;;;;;;;6167695;28;20027;-75
2022/10/29 16:23:41;;;;;;;30.83;19.80;;;;;;;;;;6171902;28;20023;-75
2022/10/29 16:26:41;;;;;;;32.17;20.53;;;;;;;;;;6169054;28;20114;-74
2022/10/29 16:29:42;;;;;;;31.97;21.40;;;;;;;;;;6162497;28;20110;-74
2022/10/29 16:32:42;;;;;;;37.33;22.27;;;;;;;;;;6156064;28;20033;-74
2022/10/29 16:35:42;;;;;;;40.63;24.07;;;;;;;;;;6168918;28;20058;-74
2022/10/29 16:38:43;;;;;;;37.25;24.17;;;;;;;;;;6157483;28;20380;-74
2022/10/29 16:41:43;;;;;;;39.77;24.23;;;;;;;;;;6148570;28;20034;-74
2022/10/29 16:44:45;;;;;;;37.70;24.20;;;;;;;;;;6156477;28;20102;-74
2022/10/29 16:47:45;;;;;;;32.25;20.67;;;;;;;;;;6163770;28;20025;-74
2022/10/29 16:50:45;;;;;;;36.88;21.20;;;;;;;;;;6159307;28;20019;-74
2022/10/29 16:53:45;;;;;;;32.80;20.27;;;;;;;;;;6159212;28;20027;-74
2022/10/29 16:56:46;;;;;;;36.20;21.47;;;;;;;;;;6162883;28;20054;-75
2022/10/29 16:59:46;;;;;;;41.50;23.20;;;;;;;;;;6164660;28;20106;-75
2022/10/29 17:02:46;;;;;;;42.23;22.57;;;;;;;;;;6166685;28;20034;-74
2022/10/29 17:05:46;;;;;;;45.40;25.63;;;;;;;;;;6155781;28;20130;-75
2022/10/29 17:08:47;;;;;;;49.97;29.07;;;;;;;;;;6162012;28;20424;-74
2022/10/29 17:11:47;;;;;;;50.97;32.50;;;;;;;;;;6173863;28;20058;-74
2022/10/29 17:14:47;;;;;;;48.47;30.50;;;;;;;;;;6163166;28;20018;-74
2022/10/29 17:17:47;;;;;;;49.63;30.67;;;;;;;;;;6163864;28;20019;-74
2022/10/29 17:20:57;;;;;;;46.67;26.70;;;;;;;;;;6147215;28;20574;-73
2022/10/29 17:23:58;;;;;;;43.60;27.13;;;;;;;;;;6154845;28;20061;-73
2022/10/29 17:26:58;;;;;;;46.50;27.03;;;;;;;;;;6168135;28;20019;-73
2022/10/29 17:29:58;;;;;;;46.40;26.27;;;;;;;;;;6159577;28;21151;-74
2022/10/29 17:32:58;;;;;;;46.75;27.60;;;;;;;;;;6156479;28;20026;-74
2022/10/29 17:36:03;;;;;;;44.40;25.87;;;;;;;;;;6156538;28;20417;-73
2022/10/29 17:39:03;;;;;;;42.70;26.77;;;;;;;;;;6169624;28;20022;-74
2022/10/29 17:42:03;;;;;;;46.60;27.37;;;;;;;;;;6162597;28;20034;-74
2022/10/29 17:45:04;;;;;;;51.77;29.73;;;;;;;;;;6165705;28;20032;-74
2022/10/29 17:48:04;;;;;;;45.97;29.67;;;;;;;;;;6163921;28;20684;-73
2022/10/29 17:51:04;;;;;;;71.50;39.23;;;;;;;;;;6166311;28;20445;-73